Latest Weather Observations for Kununurra Airport

IDW60801

Issued at 5:35 pm WST Saturday 29 November 2014 (issued every 30 minutes, with the page automatically refreshed every 10 minutes)

About weather observations | Map of weather stations | Latest weather observations for WA | Other Formats
Station Details ID: 002056 Name: KUNUNURRA AERO Lat: -15.78 Lon: 128.71 Height: 44.0 m
Data from the previous 72 hours. | See also: Recent months at Kununurra Airport
Date/Time
WST
Temp
°C
App
Temp
°C
Dew
Point
Rel
Hum
%
Delta-T
°C
Wind Press
QNH
hPa
Press
MSL
hPa
Rain
since 9 am
mm
Dir
 
Spd
km/h
Gust
km/h
Spd
kts
Gust
kts
29/05:30pm 33.9 35.3 21.0 47 8.7 N 15 20 8 11 1004.9 - 0.0
29/05:00pm 34.7 35.1 20.6 43 9.5 N 19 24 10 13 1004.7 - 0.0
29/04:30pm 35.9 34.5 20.5 40 10.4 N 28 33 15 18 1004.0 - 0.0
29/04:00pm 36.4 35.7 20.2 38 10.9 N 24 32 13 17 1003.1 - 0.0
29/03:30pm 36.9 36.4 20.7 39 11.0 N 24 33 13 18 1002.6 - 0.0
29/03:00pm 37.4 36.5 20.6 37 11.4 N 26 33 14 18 1002.9 1002.5 0.0
29/02:30pm 38.0 37.0 20.5 36 11.9 N 26 39 14 21 1002.8 - 0.0
29/02:00pm 39.2 39.5 19.6 32 13.2 NNE 17 28 9 15 1002.9 - 0.0
29/01:30pm 39.3 38.1 19.3 31 13.4 NNE 24 32 13 17 1003.3 - 0.0
29/01:17pm 39.3 37.6 19.9 32 13.1 NNE 28 39 15 21 1003.4 - 0.0
29/01:00pm 38.8 40.1 17.6 29 13.9 E 7 15 4 8 1003.6 - 0.0
29/12:30pm 38.8 38.9 18.4 30 13.5 N 15 26 8 14 1004.3 - 0.0
29/12:00pm 37.3 37.4 19.1 34 12.1 NNW 17 28 9 15 1005.0 1004.6 0.0
29/11:30am 37.3 38.7 20.3 37 11.5 N 13 26 7 14 1005.5 - 0.0
29/11:00am 37.5 37.6 20.4 37 11.6 N 20 26 11 14 1006.1 - 0.0
29/10:30am 36.8 37.3 20.0 37 11.3 NNW 17 24 9 13 1006.8 - 0.0
29/10:00am 36.0 37.3 20.2 39 10.6 N 13 24 7 13 1007.2 - 0.0
29/09:30am 35.5 36.3 20.7 42 10.0 NNW 17 24 9 13 1007.5 - 0.0
29/09:00am 34.9 36.9 20.7 43 9.6 N 11 20 6 11 1008.0 1007.7 0.0
29/08:30am 34.1 37.3 22.3 50 8.1 WNW 9 15 5 8 1008.5 - 0.0
29/08:00am 33.8 36.5 22.1 50 8.0 NW 11 15 6 8 1008.5 - 0.0
29/07:30am 31.6 35.8 23.4 61 5.7 N 7 11 4 6 1008.7 - 0.0
29/07:00am 29.8 34.3 23.9 70 4.1 N 7 9 4 5 1008.8 - 0.0
29/06:30am 29.2 34.8 24.2 74 3.5 NNW 2 6 1 3 1008.7 - 0.0
29/06:00am 28.7 33.2 23.9 75 3.3 N 7 9 4 5 1008.4 1008.1 0.0
29/05:30am 27.6 31.6 23.8 80 2.6 N 9 11 5 6 1008.2 - 0.0
29/05:00am 26.7 31.9 23.6 83 2.1 NNE 2 6 1 3 1007.8 - 0.0
29/04:30am 26.4 31.4 23.8 85 1.8 N 4 6 2 3 1007.4 - 0.0
29/04:00am 26.4 30.8 23.5 84 2.0 N 6 7 3 4 1007.2 - 0.0
29/03:30am 26.4 30.5 23.3 83 2.1 NNW 7 9 4 5 1007.0 - 0.0
29/03:00am 26.8 30.5 23.3 81 2.4 N 9 11 5 6 1006.8 1006.4 0.0
29/02:30am 26.6 32.1 23.4 82 2.2 CALM 0 0 0 0 1006.7 - 0.0
29/02:00am 27.1 31.3 23.5 81 2.5 N 7 9 4 5 1006.7 - 0.0
29/01:30am 27.1 30.8 23.3 80 2.6 NE 9 11 5 6 1006.8 - 0.0
29/01:00am 27.0 30.8 23.4 80 2.5 N 9 11 5 6 1006.8 - 0.0
29/12:30am 27.2 30.9 23.3 79 2.7 N 9 11 5 6 1007.1 - 0.0
29/12:00am 27.6 31.3 23.2 77 3.0 N 9 11 5 6 1007.4 1007.1 0.0
 
Date/Time
WST
Temp
°C
App
Temp
°C
Dew
Point
Rel
Hum
%
Delta-T
°C
Wind Press
QNH
hPa
Press
MSL
hPa
Rain
since 9 am
mm
Dir
 
Spd
km/h
Gust
km/h
Spd
kts
Gust
kts
28/11:30pm 27.3 31.3 23.7 81 2.5 N 9 11 5 6 1007.6 - 0.0
28/11:00pm 27.7 31.8 23.9 80 2.6 N 9 13 5 7 1007.7 - 0.0
28/10:30pm 28.2 31.9 23.9 77 3.0 N 11 13 6 7 1008.0 - 0.0
28/10:00pm 28.5 31.9 24.0 76 3.1 N 13 15 7 8 1008.3 - 0.0
28/09:30pm 28.9 32.3 24.0 75 3.4 N 13 17 7 9 1008.5 - 0.0
28/09:00pm 29.4 32.5 23.6 71 4.0 NNE 13 17 7 9 1008.5 1008.2 0.0
28/08:30pm 29.6 32.9 23.2 68 4.4 N 11 13 6 7 1008.3 - 0.0
28/08:00pm 29.9 32.6 22.1 63 5.3 N 11 13 6 7 1008.2 - 0.0
28/07:30pm 30.3 32.9 21.9 60 5.7 N 11 11 6 6 1007.8 - 0.0
28/07:00pm 30.8 34.1 22.6 61 5.6 N 9 13 5 7 1007.5 - 0.0
28/06:30pm 31.6 34.7 22.9 60 6.0 N 11 15 6 8 1007.0 - 0.0
28/06:00pm 32.8 36.0 22.3 54 7.2 NNE 9 11 5 6 1006.5 1006.1 0.0
28/05:30pm 33.5 35.5 21.6 49 8.1 NE 13 17 7 9 1006.1 - 0.0
28/05:00pm 34.1 36.2 20.9 46 8.9 N 11 15 6 8 1005.9 - 0.0
28/04:30pm 34.6 36.5 20.5 43 9.5 N 11 15 6 8 1005.8 - 0.0
28/04:00pm 34.1 35.7 20.8 45 9.0 N 13 17 7 9 1005.4 - 0.0
28/03:30pm 34.0 35.4 20.3 44 9.2 N 13 17 7 9 1005.4 - 0.0
28/03:00pm 34.1 34.4 20.4 44 9.2 N 19 22 10 12 1005.6 1005.2 0.0
28/02:30pm 33.4 33.3 19.9 45 9.0 NW 20 28 11 15 1005.8 - 0.0
28/02:00pm 32.4 31.2 20.1 48 8.2 N 26 35 14 19 1006.2 - 0.0
28/01:53pm 31.0 28.6 21.0 55 6.7 N 35 57 19 31 1006.3 - 0.0
28/01:51pm 33.1 30.8 20.6 47 8.4 N 33 46 18 25 1006.2 - 0.0
28/01:30pm 36.2 37.3 18.8 36 11.5 N 11 19 6 10 1006.4 - 0.0
28/01:00pm 36.4 38.1 19.4 37 11.3 SSE 9 15 5 8 1006.8 - 0.0
28/12:30pm 36.3 36.7 18.9 36 11.5 ESE 15 24 8 13 1007.3 - 0.0
28/12:00pm 36.1 35.9 17.6 33 12.0 S 15 20 8 11 1007.9 1007.6 0.0
28/11:30am 35.5 36.0 20.1 40 10.3 SSE 17 22 9 12 1008.5 - 0.0
28/11:00am 34.7 35.8 19.7 41 10.0 SSE 13 22 7 12 1009.0 - 0.0
28/10:30am 33.4 34.6 19.9 45 9.0 SE 13 20 7 11 1009.5 - 0.0
28/10:00am 32.4 33.3 20.1 48 8.2 SE 15 19 8 10 1010.3 - 0.0
28/09:30am 31.7 32.9 19.9 49 7.8 SE 13 20 7 11 1010.6 - 0.0
28/09:00am 31.3 32.9 20.8 53 7.0 SE 13 19 7 10 1010.8 1010.5 0.0
28/08:30am 30.9 32.8 20.5 54 6.9 SE 11 15 6 8 1010.9 - 0.0
28/08:00am 30.7 32.1 20.3 53 6.9 SE 13 20 7 11 1011.0 - 0.0
28/07:30am 30.2 30.5 20.4 55 6.5 ESE 19 22 10 12 1011.1 - 0.0
28/07:00am 28.8 29.1 20.5 61 5.5 SSE 19 26 10 14 1010.8 - 0.0
28/06:30am 28.8 29.4 21.0 62 5.2 SSE 19 24 10 13 1010.7 - 0.0
28/06:00am 27.9 29.8 22.1 70 3.9 SE 15 20 8 11 1010.5 1010.2 0.0
28/05:30am 27.0 29.8 22.3 75 3.2 ESE 11 13 6 7 1010.1 - 0.0
28/05:00am 26.1 29.0 22.4 80 2.5 E 11 13 6 7 1009.6 - 0.0
28/04:30am 26.3 28.7 22.3 78 2.7 E 13 15 7 8 1009.2 - 0.0
28/04:00am 26.7 29.9 22.3 77 3.0 ESE 9 9 5 5 1008.7 - 0.0
28/03:30am 26.7 29.9 22.3 77 3.0 ESE 9 13 5 7 1008.3 - 0.0
28/03:00am 26.4 29.3 22.4 78 2.7 E 11 13 6 7 1008.2 1007.9 0.0
28/02:30am 26.8 30.0 22.4 77 3.0 ESE 9 11 5 6 1008.1 - 0.0
28/02:00am 27.5 30.4 21.7 70 3.9 SSE 9 13 5 7 1008.0 - 0.0
28/01:30am 27.9 30.5 22.0 70 4.0 SSE 11 17 6 9 1008.3 - 0.0
28/01:00am 28.4 30.3 22.0 68 4.3 S 15 28 8 15 1008.5 - 0.0
28/12:30am 28.8 30.2 22.5 68 4.3 S 19 28 10 15 1009.1 - 0.0
28/12:00am 28.7 31.6 21.7 66 4.7 SE 9 13 5 7 1009.4 1009.1 0.0
 
Date/Time
WST
Temp
°C
App
Temp
°C
Dew
Point
Rel
Hum
%
Delta-T
°C
Wind Press
QNH
hPa
Press
MSL
hPa
Rain
since 9 am
mm
Dir
 
Spd
km/h
Gust
km/h
Spd
kts
Gust
kts
27/11:30pm 27.9 31.5 23.1 75 3.3 SE 9 11 5 6 1009.7 - 0.0
27/11:00pm 27.7 32.7 22.5 73 3.5 CALM 0 0 0 0 1009.7 - 0.0
27/10:30pm 27.6 32.1 21.6 70 4.0 CALM 0 0 0 0 1009.8 - 0.0
27/10:00pm 27.7 32.0 21.1 67 4.4 CALM 0 0 0 0 1010.3 - 0.0
27/09:30pm 27.1 30.9 21.7 72 3.6 SW 4 6 2 3 1010.3 - 0.0
27/09:00pm 27.1 30.1 21.2 70 3.9 NNW 7 11 4 6 1010.0 1009.7 0.0
27/08:30pm 27.7 30.1 20.8 66 4.6 N 9 11 5 6 1009.5 - 0.0
27/08:00pm 28.0 29.7 20.1 62 5.2 NNE 11 11 6 6 1009.0 - 0.0
27/07:30pm 28.4 30.0 20.0 60 5.5 N 11 13 6 7 1009.0 - 0.0
27/07:00pm 29.1 31.0 19.8 57 6.1 NNW 9 13 5 7 1008.9 - 0.0
27/06:30pm 30.0 31.8 19.5 53 6.9 NNW 9 11 5 6 1008.4 - 0.0
27/06:00pm 30.8 32.1 19.2 50 7.6 N 11 15 6 8 1007.6 1007.3 0.0
27/05:30pm 31.9 32.5 18.5 45 8.7 N 13 19 7 10 1007.2 - 0.0
27/05:00pm 33.5 32.8 17.3 38 10.4 N 17 24 9 13 1007.0 - 0.0
27/04:30pm 34.3 33.1 17.4 36 10.9 N 20 28 11 15 1006.7 - 0.0
27/04:00pm 34.7 34.1 17.5 36 11.1 N 17 24 9 13 1006.6 - 0.0
27/03:30pm 34.2 34.5 18.8 40 10.1 NNW 15 24 8 13 1006.6 - 0.0
27/03:00pm 34.8 34.9 20.0 42 9.9 N 19 24 10 13 1006.6 1006.2 0.0
27/02:30pm 34.1 33.8 19.6 42 9.6 N 20 32 11 17 1006.6 - 0.0
27/02:00pm 34.6 34.0 18.8 39 10.4 N 20 26 11 14 1007.0 - 0.0
27/01:30pm 34.3 34.8 19.2 41 10.0 NNW 15 19 8 10 1007.3 - 0.0
27/01:00pm 35.0 36.1 20.4 42 9.8 N 15 22 8 12 1008.0 - 0.0
27/12:30pm 34.6 35.6 22.1 48 8.6 N 20 32 11 17 1008.1 - 0.0
27/12:00pm 34.5 36.3 22.6 50 8.2 N 17 24 9 13 1008.7 1008.4 0.0
27/11:30am 31.8 32.6 23.1 60 6.0 N 24 28 13 15 1009.3 - 0.0
27/11:00am 30.7 30.9 22.8 62 5.4 N 26 32 14 17 1009.9 - 0.0
27/10:30am 30.7 30.8 23.2 64 5.2 N 28 33 15 18 1010.1 - 0.0
27/10:00am 33.7 34.5 21.7 49 8.2 N 20 26 11 14 1010.0 - 0.0
27/09:30am 32.5 34.0 21.2 51 7.6 N 15 22 8 12 1010.0 - 0.0
27/09:00am 32.3 34.8 21.7 53 7.2 N 11 17 6 9 1010.4 1010.1 0.0
27/08:30am 32.8 35.3 21.1 50 7.9 NW 9 19 5 10 1010.4 - 0.0
27/08:00am 31.5 35.0 21.9 56 6.5 NNE 6 9 3 5 1010.4 - 0.0
27/07:30am 30.9 35.1 23.1 63 5.4 NNE 6 9 3 5 1010.4 - 0.0
27/07:00am 29.6 34.2 23.2 68 4.4 ESE 4 7 2 4 1010.2 - 0.0
27/06:30am 27.7 32.3 24.2 81 2.4 SE 7 9 4 5 1009.9 - 0.0
27/06:00am 27.0 31.7 24.0 83 2.1 S 6 7 3 4 1009.7 1009.4 0.0
27/05:30am 26.6 31.0 23.5 83 2.1 ESE 6 7 3 4 1009.4 - 0.0
27/05:00am 25.6 30.1 23.6 89 1.4 E 6 7 3 4 1008.9 - 0.0
27/04:30am 25.3 30.5 23.5 90 1.2 SSW 2 6 1 3 1008.2 - 0.0
27/04:00am 24.9 29.6 23.4 91 1.0 N 4 7 2 4 1007.8 - 0.0
27/03:30am 25.2 28.6 23.4 90 1.2 NNW 11 13 6 7 1007.6 - 0.0
27/03:00am 24.9 28.7 23.4 91 1.0 NNE 9 11 5 6 1007.8 1007.5 0.0
27/02:30am 24.8 28.5 23.3 91 1.0 NNE 9 9 5 5 1007.3 - 0.0
27/02:00am 25.1 30.5 23.3 90 1.2 CALM 0 0 0 0 1007.2 - 0.0
27/01:30am 24.9 29.6 23.3 91 1.1 N 4 9 2 5 1007.5 - 0.0
27/01:00am 24.6 28.6 23.1 91 1.0 WNW 7 9 4 5 1007.4 - 0.0
27/12:30am 24.7 28.9 23.2 91 1.0 NNW 6 9 3 5 1007.5 - 0.0
27/12:00am 26.0 30.6 23.2 84 1.9 E 4 6 2 3 1007.9 1007.6 0.0
 
Date/Time
WST
Temp
°C
App
Temp
°C
Dew
Point
Rel
Hum
%
Delta-T
°C
Wind Press
QNH
hPa
Press
MSL
hPa
Rain
since 9 am
mm
Dir
 
Spd
km/h
Gust
km/h
Spd
kts
Gust
kts
26/11:30pm 26.0 30.1 23.2 84 1.9 E 7 9 4 5 1008.3 - 0.0
26/11:00pm 26.1 30.2 23.3 84 1.9 E 7 9 4 5 1008.4 - 0.0
26/10:30pm 26.1 29.7 23.0 83 2.1 E 9 11 5 6 1008.3 - 0.0
26/10:00pm 26.4 31.3 23.0 81 2.3 SSE 2 7 1 4 1008.3 - 0.0
26/09:30pm 25.9 30.1 22.5 81 2.3 S 4 9 2 5 1008.7 - 0.0
26/09:00pm 25.6 29.3 22.5 83 2.1 WNW 7 13 4 7 1008.9 1008.6 0.0
26/08:30pm 25.6 27.9 22.8 84 1.9 N 15 20 8 11 1008.8 - 0.0
26/08:00pm 27.6 27.0 20.6 65 4.6 N 24 28 13 15 1008.9 - 0.0
26/07:30pm 29.2 28.0 21.5 63 5.2 NNE 30 46 16 25 1008.7 - 0.0
26/07:27pm 29.5 28.4 21.0 60 5.7 NNE 28 46 15 25 1008.6 - 0.0
26/07:00pm 28.9 33.8 22.3 67 4.5 CALM 0 4 0 2 1007.4 - 0.0
26/06:30pm 29.0 29.0 21.6 64 5.0 E 24 35 13 19 1007.2 - 0.0
26/06:00pm 30.4 30.2 21.3 58 6.1 SSE 24 35 13 19 1006.7 1006.3 0.0

Other Formats:

Comma delimited format used in spreadsheet applications
http://www.bom.gov.au/fwo/IDW60801/IDW60801.94216.axf

JavaScript Object Notation format (JSON) in row-major order
http://www.bom.gov.au/fwo/IDW60801/IDW60801.94216.json